Time;durP1;ratioP1;P1;durP2;ratioP2;P2;SDS_P1;SDS_P2;PMS_P1;PMS_P2;Temp;Humidity;BMP_temperature;BMP_pressure;BME280_temperature;BME280_humidity;BME280_pressure;Samples;Min_cycle;Max_cycle;Signal;HPM_P1;HPM_P2
2024/01/22 00:00:30;;;;;;;7.10;6.63;;;;;;;-145.48;100.00;64539.38;6260073;28;20032;-94
2024/01/22 00:03:32;;;;;;;7.28;6.95;;;;;;;-145.48;100.00;64539.38;6274148;28;20175;-94
2024/01/22 00:06:37;;;;;;;8.63;6.57;;;;;;;-145.48;100.00;64539.38;6280466;28;20055;-94
2024/01/22 00:09:39;;;;;;;8.52;7.82;;;;;;;-145.48;100.00;64539.38;6285164;28;20037;-93
2024/01/22 00:12:41;;;;;;;9.70;6.78;;;;;;;-145.48;100.00;64539.38;6280673;28;20497;-94
2024/01/22 00:15:43;;;;;;;6.80;6.47;;;;;;;-145.48;100.00;64539.38;6286675;28;20040;-94
2024/01/22 00:18:46;;;;;;;7.32;6.93;;;;;;;-145.48;100.00;64539.38;6276905;28;20573;-94
2024/01/22 00:21:48;;;;;;;9.02;7.78;;;;;;;-145.48;100.00;64539.38;6281611;28;20533;-93
2024/01/22 00:24:50;;;;;;;6.75;6.45;;;;;;;-145.48;100.00;64539.38;6271359;28;20044;-93
2024/01/22 00:27:52;;;;;;;7.80;7.40;;;;;;;-145.48;100.00;64539.38;6290004;28;20127;-94
2024/01/22 00:30:57;;;;;;;6.85;6.55;;;;;;;-145.48;100.00;64539.38;6280050;28;20387;-94
2024/01/22 00:33:59;;;;;;;7.68;7.28;;;;;;;-145.48;100.00;64539.38;6277100;28;20040;-93
2024/01/22 00:37:01;;;;;;;6.90;6.60;;;;;;;-145.48;100.00;64539.38;6293919;28;20041;-94
2024/01/22 00:40:04;;;;;;;7.00;6.68;;;;;;;-145.48;100.00;64539.38;6286832;28;20481;-94
2024/01/22 00:43:06;;;;;;;9.02;8.63;;;;;;;-145.48;100.00;64539.38;6287492;28;20478;-94
2024/01/22 00:46:08;;;;;;;8.05;7.47;;;;;;;-145.48;100.00;64539.38;6282291;28;20043;-93
2024/01/22 00:49:09;;;;;;;6.00;5.80;;;;;;;-145.48;100.00;64539.38;6283209;28;20048;-93
2024/01/22 00:52:11;;;;;;;7.20;6.90;;;;;;;-145.48;100.00;64539.38;6283000;28;20041;-93
2024/01/22 00:55:14;;;;;;;7.05;6.65;;;;;;;-145.48;100.00;64539.38;6280429;28;20529;-93
2024/01/22 00:58:15;;;;;;;8.25;7.78;;;;;;;-145.48;100.00;64539.38;6281396;28;20048;-93
2024/01/22 01:01:17;;;;;;;6.75;6.55;;;;;;;-145.48;100.00;64539.38;6286663;28;20044;-93
2024/01/22 01:04:19;;;;;;;6.75;6.38;;;;;;;-145.48;100.00;64539.38;6288412;28;20047;-93
2024/01/22 01:07:23;;;;;;;7.95;7.55;;;;;;;-145.48;100.00;64539.38;6287983;28;20125;-91
2024/01/22 01:10:25;;;;;;;7.38;6.85;;;;;;;-145.48;100.00;64539.38;6290165;28;20135;-90
2024/01/22 01:13:27;;;;;;;7.32;6.93;;;;;;;-145.48;100.00;64539.38;6287271;28;20040;-90
2024/01/22 01:16:29;;;;;;;7.57;7.15;;;;;;;-145.48;100.00;64539.38;6287329;28;20305;-90
2024/01/22 01:19:31;;;;;;;7.47;7.07;;;;;;;-145.48;100.00;64539.38;6287401;28;20657;-90
2024/01/22 01:22:33;;;;;;;7.22;6.82;;;;;;;-145.48;100.00;64539.38;6277586;28;20190;-90
2024/01/22 01:25:36;;;;;;;6.20;6.00;;;;;;;-145.48;100.00;64539.38;6280773;28;20043;-90
2024/01/22 01:28:37;;;;;;;6.68;6.18;;;;;;;-145.48;100.00;64539.38;6282125;28;20041;-90
2024/01/22 01:31:39;;;;;;;6.05;5.82;;;;;;;-145.48;100.00;64539.38;6285112;28;20064;-90
2024/01/22 01:34:41;;;;;;;7.45;6.97;;;;;;;-145.48;100.00;64539.38;6284661;28;20056;-90
2024/01/22 01:37:43;;;;;;;8.10;7.50;;;;;;;-145.48;100.00;64539.38;6291994;28;20048;-90
2024/01/22 01:40:47;;;;;;;6.28;6.07;;;;;;;-145.48;100.00;64539.38;6288971;28;20044;-90
2024/01/22 01:43:49;;;;;;;6.75;6.45;;;;;;;-145.48;100.00;64539.38;6284491;28;20473;-90
2024/01/22 01:46:51;;;;;;;7.13;6.72;;;;;;;-145.48;100.00;64539.38;6281965;28;20530;-90
2024/01/22 01:49:54;;;;;;;7.28;6.97;;;;;;;-145.48;100.00;64539.38;6283558;28;20037;-90
2024/01/22 01:52:56;;;;;;;7.70;7.00;;;;;;;-145.48;100.00;64539.38;6282757;28;20048;-90
2024/01/22 01:56:00;;;;;;;5.97;5.78;;;;;;;-145.48;100.00;64539.38;6275873;28;20037;-90
2024/01/22 01:59:02;;;;;;;7.65;7.35;;;;;;;-145.48;100.00;64539.38;6275564;28;20048;-90
2024/01/22 02:02:04;;;;;;;7.13;5.72;;;;;;;-145.48;100.00;64539.38;6286742;28;20056;-90
2024/01/22 02:05:09;;;;;;;5.68;5.47;;;;;;;-145.48;100.00;64539.38;6287984;28;20044;-90
2024/01/22 02:08:11;;;;;;;5.70;5.45;;;;;;;-145.48;100.00;64539.38;6285921;28;20134;-90
2024/01/22 02:11:13;;;;;;;6.07;5.88;;;;;;;-145.48;100.00;64539.38;6282617;28;20081;-89
2024/01/22 02:14:15;;;;;;;7.45;7.15;;;;;;;-145.48;100.00;64539.38;6287581;28;20308;-90
2024/01/22 02:17:17;;;;;;;6.28;6.05;;;;;;;-145.48;100.00;64539.38;6280824;28;20097;-89
2024/01/22 02:20:19;;;;;;;7.10;6.80;;;;;;;-145.48;100.00;64539.38;6289635;28;20037;-90
2024/01/22 02:23:21;;;;;;;6.85;6.55;;;;;;;-145.48;100.00;64539.38;6287569;28;20071;-91
2024/01/22 02:26:23;;;;;;;6.65;6.13;;;;;;;-145.48;100.00;64539.38;6283400;28;20066;-90
2024/01/22 02:29:25;;;;;;;5.95;5.72;;;;;;;-145.48;100.00;64539.38;6279553;28;20358;-91
2024/01/22 02:32:27;;;;;;;6.70;6.50;;;;;;;-145.48;100.00;64539.38;6286577;28;20047;-90
2024/01/22 02:35:28;;;;;;;6.07;5.88;;;;;;;-145.48;100.00;64539.38;6285427;28;20032;-90
2024/01/22 02:38:30;;;;;;;7.43;6.95;;;;;;;-145.48;100.00;64539.38;6287123;28;20041;-90
2024/01/22 02:41:32;;;;;;;6.85;6.63;;;;;;;-145.48;100.00;64539.38;6285587;28;20165;-90
2024/01/22 02:44:37;;;;;;;5.82;5.53;;;;;;;-145.48;100.00;64539.38;6288053;28;20037;-90
2024/01/22 02:47:39;;;;;;;5.80;5.55;;;;;;;-145.48;100.00;64539.38;6279057;28;20047;-91
2024/01/22 02:50:41;;;;;;;5.82;5.63;;;;;;;-145.48;100.00;64539.38;6275468;28;20044;-90
2024/01/22 02:53:45;;;;;;;6.80;6.50;;;;;;;-145.48;100.00;64539.38;6281030;28;20041;-91
2024/01/22 02:56:47;;;;;;;6.32;6.13;;;;;;;-145.48;100.00;64539.38;6282514;28;20070;-91
2024/01/22 02:59:49;;;;;;;5.97;5.78;;;;;;;-145.48;100.00;64539.38;6280957;28;20040;-91
2024/01/22 03:02:51;;;;;;;6.80;6.53;;;;;;;-145.48;100.00;64539.38;6293647;28;20182;-91
2024/01/22 03:05:53;;;;;;;6.20;5.90;;;;;;;-145.48;100.00;64539.38;6289278;28;20044;-89
2024/01/22 03:08:55;;;;;;;20.55;8.02;;;;;;;-145.48;100.00;64539.38;6291977;28;20047;-91
2024/01/22 03:11:58;;;;;;;6.28;6.07;;;;;;;-145.48;100.00;64539.38;6287207;28;20052;-90
2024/01/22 03:15:00;;;;;;;5.30;5.15;;;;;;;-145.48;100.00;64539.38;6285458;28;20049;-90
2024/01/22 03:18:03;;;;;;;5.75;5.55;;;;;;;-145.48;100.00;64539.38;6279640;28;20037;-90
2024/01/22 03:21:05;;;;;;;7.40;7.10;;;;;;;-145.48;100.00;64539.38;6271870;28;20044;-91
2024/01/22 03:24:07;;;;;;;5.85;5.65;;;;;;;-145.48;100.00;64539.38;6283191;28;20045;-90
2024/01/22 03:27:08;;;;;;;8.20;7.55;;;;;;;-145.48;100.00;64539.38;6278711;28;20040;-90
2024/01/22 03:30:12;;;;;;;5.88;5.68;;;;;;;-145.48;100.00;64539.38;6282366;28;20052;-91
2024/01/22 03:33:14;;;;;;;6.82;6.63;;;;;;;-145.48;100.00;64539.38;6278204;28;20094;-91
2024/01/22 03:36:16;;;;;;;6.50;6.10;;;;;;;-145.48;100.00;64539.38;6283357;28;20040;-91
2024/01/22 03:39:18;;;;;;;5.45;5.25;;;;;;;-145.48;100.00;64539.38;6288311;28;20044;-91
2024/01/22 03:42:20;;;;;;;7.28;7.00;;;;;;;-145.48;100.00;64539.38;6281670;28;20249;-91
2024/01/22 03:45:22;;;;;;;6.38;6.07;;;;;;;-145.48;100.00;64539.38;6277703;28;20040;-91
2024/01/22 03:48:24;;;;;;;5.72;5.53;;;;;;;-145.48;100.00;64539.38;6289269;28;20043;-91
2024/01/22 03:51:26;;;;;;;10.18;6.38;;;;;;;-145.48;100.00;64539.38;6277991;28;20060;-92
2024/01/22 03:54:28;;;;;;;6.10;5.90;;;;;;;-145.48;100.00;64539.38;6282192;28;20044;-91
2024/01/22 03:57:30;;;;;;;5.15;4.95;;;;;;;-145.48;100.00;64539.38;6283539;28;20483;-91
2024/01/22 04:00:32;;;;;;;6.20;6.00;;;;;;;-145.48;100.00;64539.38;6280854;28;20045;-91
2024/01/22 04:03:35;;;;;;;6.28;6.03;;;;;;;-145.48;100.00;64539.38;6274753;28;20052;-91
2024/01/22 04:06:37;;;;;;;5.55;5.35;;;;;;;-145.48;100.00;64539.38;6277377;28;20516;-91
2024/01/22 04:09:39;;;;;;;5.93;5.72;;;;;;;-145.48;100.00;64539.38;6272802;28;20043;-92
2024/01/22 04:12:41;;;;;;;6.68;6.38;;;;;;;-145.48;100.00;64539.38;6281327;28;20037;-92
2024/01/22 04:15:42;;;;;;;6.20;5.90;;;;;;;-145.48;100.00;64539.38;6287027;28;20454;-92
2024/01/22 04:18:44;;;;;;;6.65;6.43;;;;;;;-145.48;100.00;64539.38;6284790;28;20087;-92
2024/01/22 04:21:47;;;;;;;5.68;5.47;;;;;;;-145.48;100.00;64539.38;6284866;28;20037;-93
2024/01/22 04:24:50;;;;;;;6.28;5.97;;;;;;;-145.48;100.00;64539.38;6268054;28;20095;-91
2024/01/22 04:27:56;;;;;;;6.20;6.00;;;;;;;-145.48;100.00;64539.38;6278518;28;20187;-93
2024/01/22 04:30:58;;;;;;;10.98;6.80;;;;;;;-145.48;100.00;64539.38;6286015;28;20374;-92
2024/01/22 04:34:00;;;;;;;6.35;5.95;;;;;;;-145.48;100.00;64539.38;6276610;28;20127;-92
2024/01/22 04:37:03;;;;;;;6.45;6.18;;;;;;;-145.48;100.00;64539.38;6284895;28;20441;-92
2024/01/22 04:40:14;;;;;;;5.68;5.47;;;;;;;-145.48;100.00;64539.38;6284948;28;20056;-92
2024/01/22 04:43:16;;;;;;;;;;;;;;;-145.48;100.00;64539.38;6275580;28;20124;-92
2024/01/22 04:46:18;;;;;;;6.53;6.25;;;;;;;-145.48;100.00;64539.38;6284249;28;19927;-92
2024/01/22 04:49:20;;;;;;;6.47;6.07;;;;;;;-145.48;100.00;64539.38;6285590;28;20450;-93
2024/01/22 04:52:22;;;;;;;5.55;5.35;;;;;;;-145.48;100.00;64539.38;6279480;28;20059;-93
2024/01/22 04:55:24;;;;;;;6.03;5.82;;;;;;;-145.48;100.00;64539.38;6271679;28;20045;-93
2024/01/22 04:58:31;;;;;;;6.55;6.25;;;;;;;-145.48;100.00;64539.38;6285480;28;20141;-92
2024/01/22 05:01:33;;;;;;;6.40;6.10;;;;;;;-145.48;100.00;64539.38;6281886;28;20055;-92
2024/01/22 05:04:35;;;;;;;6.75;6.35;;;;;;;-145.48;100.00;64539.38;6280744;28;20047;-93
2024/01/22 05:07:37;;;;;;;7.60;7.22;;;;;;;-145.48;100.00;64539.38;6282121;28;20475;-93
2024/01/22 05:10:39;;;;;;;5.35;5.15;;;;;;;-145.48;100.00;64539.38;6283408;28;20144;-93
2024/01/22 05:13:53;;;;;;;5.70;5.50;;;;;;;-145.48;100.00;64539.38;6283055;28;20205;-92
2024/01/22 05:16:55;;;;;;;5.45;5.25;;;;;;;-145.48;100.00;64539.38;6283264;28;20033;-92
2024/01/22 05:19:57;;;;;;;5.63;5.43;;;;;;;-145.48;100.00;64539.38;6279241;28;20045;-92
2024/01/22 05:22:59;;;;;;;5.43;5.22;;;;;;;-145.48;100.00;64539.38;6282057;28;20503;-91
2024/01/22 05:26:01;;;;;;;6.25;5.97;;;;;;;-145.48;100.00;64539.38;6278398;28;20041;-91
2024/01/22 05:29:03;;;;;;;5.30;5.10;;;;;;;-145.48;100.00;64539.38;6285951;28;20037;-90
2024/01/22 05:32:06;;;;;;;5.50;5.28;;;;;;;-145.48;100.00;64539.38;6286958;28;20554;-92
2024/01/22 05:35:08;;;;;;;5.63;5.43;;;;;;;-145.48;100.00;64539.38;6282824;28;20048;-91
2024/01/22 05:38:10;;;;;;;5.97;5.78;;;;;;;-145.48;100.00;64539.38;6262409;28;20044;-92
2024/01/22 05:41:12;;;;;;;6.70;5.97;;;;;;;-145.48;100.00;64539.38;6287448;28;20307;-89
2024/01/22 05:44:14;;;;;;;6.35;6.05;;;;;;;-145.48;100.00;64539.38;6287760;28;20041;-92
2024/01/22 05:47:16;;;;;;;6.10;5.90;;;;;;;-145.48;100.00;64539.38;6277812;28;20124;-92
2024/01/22 05:50:18;;;;;;;5.78;5.57;;;;;;;-145.48;100.00;64539.38;6279895;28;20467;-93
2024/01/22 05:53:20;;;;;;;9.85;5.97;;;;;;;-145.48;100.00;64539.38;6262429;28;20040;-91
2024/01/22 05:56:25;;;;;;;10.02;6.57;;;;;;;-145.48;100.00;64539.38;6285404;28;20076;-90
2024/01/22 05:59:27;;;;;;;6.00;5.75;;;;;;;-145.48;100.00;64539.38;6291994;28;20052;-93
2024/01/22 06:02:29;;;;;;;6.18;5.88;;;;;;;-145.48;100.00;64539.38;6287496;28;20409;-91
2024/01/22 06:05:31;;;;;;;5.53;5.32;;;;;;;-145.48;100.00;64539.38;6285773;28;20036;-91
2024/01/22 06:08:33;;;;;;;6.13;5.93;;;;;;;-145.48;100.00;64539.38;6275040;28;20141;-91
2024/01/22 06:11:35;;;;;;;6.10;5.90;;;;;;;-145.48;100.00;64539.38;6288338;28;20071;-91
2024/01/22 06:14:37;;;;;;;5.93;5.72;;;;;;;-145.48;100.00;64539.38;6284603;28;20044;-90
2024/01/22 06:17:39;;;;;;;5.93;5.72;;;;;;;-145.48;100.00;64539.38;6290109;28;20139;-90
2024/01/22 06:20:41;;;;;;;6.55;6.35;;;;;;;-145.48;100.00;64539.38;6282654;28;20037;-89
2024/01/22 06:23:43;;;;;;;6.50;6.20;;;;;;;-145.48;100.00;64539.38;6280839;28;20071;-89
2024/01/22 06:26:45;;;;;;;6.78;6.47;;;;;;;-145.48;100.00;64539.38;6279824;28;20049;-90
2024/01/22 06:29:47;;;;;;;6.15;5.95;;;;;;;-145.48;100.00;64539.38;6285022;28;20045;-90
2024/01/22 06:32:50;;;;;;;5.55;5.35;;;;;;;-145.48;100.00;64539.38;6267178;28;20520;-90
2024/01/22 06:35:53;;;;;;;5.88;5.57;;;;;;;-145.48;100.00;64539.38;6284315;28;20041;-90
2024/01/22 06:38:55;;;;;;;5.55;5.35;;;;;;;-145.48;100.00;64539.38;6291602;28;20048;-89
2024/01/22 06:41:57;;;;;;;5.80;5.60;;;;;;;-145.48;100.00;64539.38;6286545;28;20044;-89
2024/01/22 06:44:59;;;;;;;6.15;5.95;;;;;;;-145.48;100.00;64539.38;6285041;28;20131;-90
2024/01/22 06:48:01;;;;;;;7.03;6.72;;;;;;;-145.48;100.00;64539.38;6286953;28;20193;-90
2024/01/22 06:51:08;;;;;;;6.10;5.90;;;;;;;-145.48;100.00;64539.38;6284178;28;20078;-90
2024/01/22 06:54:11;;;;;;;5.93;5.72;;;;;;;-145.48;100.00;64539.38;6270272;28;20076;-90
2024/01/22 06:57:13;;;;;;;6.38;6.18;;;;;;;-145.48;100.00;64539.38;6281544;28;20491;-90
2024/01/22 07:00:16;;;;;;;6.35;6.07;;;;;;;-145.48;100.00;64539.38;6281828;28;20051;-90
2024/01/22 07:03:20;;;;;;;7.18;6.78;;;;;;;-145.48;100.00;64539.38;6293280;28;20045;-90
2024/01/22 07:06:23;;;;;;;15.77;6.63;;;;;;;-145.48;100.00;64539.38;6273410;28;21072;-90
2024/01/22 07:09:28;;;;;;;7.07;6.78;;;;;;;-145.48;100.00;64539.38;6286986;28;20044;-91
2024/01/22 07:12:30;;;;;;;6.82;6.55;;;;;;;-145.48;100.00;64539.38;6284745;28;20047;-91
2024/01/22 07:15:32;;;;;;;6.30;6.10;;;;;;;-145.48;100.00;64539.38;6284620;28;20056;-92
2024/01/22 07:18:34;;;;;;;5.90;5.70;;;;;;;-145.48;100.00;64539.38;6277183;28;20045;-92
2024/01/22 07:21:36;;;;;;;7.15;6.95;;;;;;;-145.48;100.00;64539.38;6288381;28;20044;-92
2024/01/22 07:24:39;;;;;;;6.38;6.18;;;;;;;-145.48;100.00;64539.38;6285886;28;20070;-93
2024/01/22 07:27:42;;;;;;;5.80;5.60;;;;;;;-145.48;100.00;64539.38;6283068;28;20064;-93
2024/01/22 07:30:44;;;;;;;6.35;6.15;;;;;;;-145.48;100.00;64539.38;6277979;28;20094;-92
2024/01/22 07:33:46;;;;;;;6.78;6.25;;;;;;;-145.48;100.00;64539.38;6276287;28;20066;-93
2024/01/22 07:36:48;;;;;;;5.68;5.40;;;;;;;-145.48;100.00;64539.38;6288571;28;20055;-92
2024/01/22 07:39:51;;;;;;;5.75;5.55;;;;;;;-145.48;100.00;64539.38;6285124;28;20755;-92
2024/01/22 07:42:53;;;;;;;6.10;5.82;;;;;;;-145.48;100.00;64539.38;6289905;28;20063;-93
2024/01/22 07:45:56;;;;;;;5.60;5.40;;;;;;;-145.48;100.00;64539.38;6282987;28;20113;-93
2024/01/22 07:48:58;;;;;;;6.13;5.85;;;;;;;-145.48;100.00;64539.38;6286372;28;20029;-93
2024/01/22 07:52:01;;;;;;;4.97;4.80;;;;;;;-145.48;100.00;64539.38;6279432;28;20037;-94
2024/01/22 07:55:05;;;;;;;6.90;6.60;;;;;;;-145.48;100.00;64539.38;6280857;28;20068;-94
2024/01/22 07:58:09;;;;;;;5.38;5.20;;;;;;;-145.48;100.00;64539.38;6287994;28;20075;-93
2024/01/22 08:01:13;;;;;;;5.97;5.75;;;;;;;-145.48;100.00;64539.38;6288168;28;20044;-94
2024/01/22 08:04:14;;;;;;;5.45;5.25;;;;;;;-145.48;100.00;64539.38;6292061;28;20420;-94
2024/01/22 08:07:23;;;;;;;5.88;5.68;;;;;;;-145.48;100.00;64539.38;6281384;28;20514;-94
2024/01/22 08:10:25;;;;;;;5.45;5.25;;;;;;;-145.48;100.00;64539.38;6284450;28;20032;-94
2024/01/22 08:13:28;;;;;;;5.72;5.53;;;;;;;-145.48;100.00;64539.38;6280103;28;20499;-93
2024/01/22 08:16:29;;;;;;;5.78;5.57;;;;;;;-145.48;100.00;64539.38;6274166;28;20138;-94
2024/01/22 08:19:33;;;;;;;5.97;5.78;;;;;;;-145.48;100.00;64539.38;6287829;28;20037;-92
2024/01/22 08:22:35;;;;;;;7.50;7.20;;;;;;;-145.48;100.00;64539.38;6287709;28;20162;-92
2024/01/22 08:25:38;;;;;;;6.00;5.80;;;;;;;-145.48;100.00;64539.38;6281743;28;20066;-92
2024/01/22 08:28:40;;;;;;;6.10;5.90;;;;;;;-145.48;100.00;64539.38;6283505;28;20123;-92
2024/01/22 08:31:42;;;;;;;5.85;5.65;;;;;;;-145.48;100.00;64539.38;6285412;28;20044;-92
2024/01/22 08:34:44;;;;;;;5.90;5.70;;;;;;;-145.48;100.00;64539.38;6288122;28;20094;-93
2024/01/22 08:37:53;;;;;;;5.82;5.63;;;;;;;-145.48;100.00;64539.38;6285907;28;20434;-93
2024/01/22 08:40:55;;;;;;;5.28;5.18;;;;;;;-145.48;100.00;64539.38;6284624;28;20075;-93
2024/01/22 08:44:02;;;;;;;5.90;5.70;;;;;;;-145.48;100.00;64539.38;6286405;28;20047;-94
2024/01/22 08:47:03;;;;;;;5.32;5.20;;;;;;;-145.48;100.00;64539.38;6298574;28;20067;-93
2024/01/22 08:50:06;;;;;;;5.80;5.50;;;;;;;-145.48;100.00;64539.38;6281049;28;20044;-88
2024/01/22 08:53:08;;;;;;;5.65;5.47;;;;;;;-145.48;100.00;64539.38;6288980;28;20290;-88
2024/01/22 08:56:10;;;;;;;6.03;5.82;;;;;;;-145.48;100.00;64539.38;6287923;28;20044;-88
2024/01/22 08:59:14;;;;;;;5.45;5.25;;;;;;;-145.48;100.00;64539.38;6282301;28;20045;-87
2024/01/22 09:02:16;;;;;;;6.00;5.80;;;;;;;-145.48;100.00;64539.38;6289832;28;20040;-87
2024/01/22 09:05:19;;;;;;;6.43;6.22;;;;;;;-145.48;100.00;64539.38;6282447;28;20044;-88
2024/01/22 09:08:20;;;;;;;5.78;5.57;;;;;;;-145.48;100.00;64539.38;6287325;28;20045;-87
2024/01/22 09:11:23;;;;;;;6.53;6.15;;;;;;;-145.48;100.00;64539.38;6293313;28;20033;-87
2024/01/22 09:14:25;;;;;;;4.97;4.88;;;;;;;-145.48;100.00;64539.38;6292446;28;20446;-87
2024/01/22 09:17:27;;;;;;;5.80;5.60;;;;;;;-145.48;100.00;64539.38;6286796;28;20033;-87
2024/01/22 09:20:30;;;;;;;5.43;5.22;;;;;;;-145.48;100.00;64539.38;6288865;28;20056;-87
2024/01/22 09:23:32;;;;;;;6.03;5.82;;;;;;;-145.48;100.00;64539.38;6284920;28;20132;-87
2024/01/22 09:26:34;;;;;;;5.25;5.13;;;;;;;-145.48;100.00;64539.38;6289410;28;20128;-87
2024/01/22 09:29:36;;;;;;;5.05;4.95;;;;;;;-145.48;100.00;64539.38;6293111;28;20037;-87
2024/01/22 09:32:40;;;;;;;5.45;5.25;;;;;;;-145.48;100.00;64539.38;6292371;28;20041;-87
2024/01/22 09:35:43;;;;;;;6.22;6.03;;;;;;;-145.48;100.00;64539.38;6293228;28;20523;-87
2024/01/22 09:38:46;;;;;;;5.20;5.07;;;;;;;-145.48;100.00;64539.38;6281193;28;20045;-87
2024/01/22 09:41:51;;;;;;;5.95;5.75;;;;;;;-145.48;100.00;64539.38;6271692;28;20047;-87
2024/01/22 09:44:53;;;;;;;6.07;5.88;;;;;;;-145.48;100.00;64539.38;6291985;28;20178;-87
2024/01/22 09:47:56;;;;;;;6.05;5.85;;;;;;;-145.48;100.00;64539.38;6277510;28;20072;-87
2024/01/22 09:51:01;;;;;;;6.30;6.10;;;;;;;-145.48;100.00;64539.38;6283214;28;20052;-87
2024/01/22 09:54:12;;;;;;;5.07;4.97;;;;;;;-145.48;100.00;64539.38;6290740;28;20051;-86
2024/01/22 09:57:18;;;;;;;6.38;6.18;;;;;;;-145.48;100.00;64539.38;6293509;28;20117;-87
2024/01/22 10:00:26;;;;;;;6.07;5.88;;;;;;;-145.48;100.00;64539.38;6283544;28;20040;-87
2024/01/22 10:03:32;;;;;;;6.38;6.18;;;;;;;-145.48;100.00;64539.38;6287592;28;20049;-87
2024/01/22 10:06:36;;;;;;;5.60;5.40;;;;;;;-145.48;100.00;64539.38;6280115;28;20517;-87
2024/01/22 10:09:38;;;;;;;6.85;6.60;;;;;;;-145.48;100.00;64539.38;6297806;28;20040;-86
2024/01/22 10:13:09;;;;;;;6.45;6.05;;;;;;;-145.48;100.00;64539.38;6288538;28;20146;-88
2024/01/22 10:16:11;;;;;;;5.75;5.55;;;;;;;-145.48;100.00;64539.38;6282363;28;20046;-88
2024/01/22 10:19:14;;;;;;;6.57;6.38;;;;;;;-145.48;100.00;64539.38;6279874;28;20426;-88
2024/01/22 10:22:22;;;;;;;5.82;5.63;;;;;;;-145.48;100.00;64539.38;6283594;28;20534;-88
2024/01/22 10:25:24;;;;;;;6.35;6.15;;;;;;;-145.48;100.00;64539.38;6285682;28;20497;-88
2024/01/22 10:28:27;;;;;;;5.80;5.60;;;;;;;-145.48;100.00;64539.38;6279397;28;20036;-88
2024/01/22 10:31:29;;;;;;;5.78;5.57;;;;;;;-145.48;100.00;64539.38;6288041;28;20116;-88
2024/01/22 10:34:43;;;;;;;5.70;5.50;;;;;;;-145.48;100.00;64539.38;6292486;28;20040;-88
2024/01/22 10:37:46;;;;;;;5.10;5.00;;;;;;;-145.48;100.00;64539.38;6288655;28;20040;-88
2024/01/22 10:40:48;;;;;;;5.70;5.50;;;;;;;-145.48;100.00;64539.38;6289548;28;20040;-89
2024/01/22 10:43:51;;;;;;;5.82;5.63;;;;;;;-145.48;100.00;64539.38;6286614;28;20168;-89
2024/01/22 10:46:54;;;;;;;5.43;5.25;;;;;;;-145.48;100.00;64539.38;6285922;28;20048;-90
2024/01/22 10:49:57;;;;;;;6.18;5.97;;;;;;;-145.48;100.00;64539.38;6279605;28;20445;-89
2024/01/22 10:53:00;;;;;;;5.43;5.22;;;;;;;-145.48;100.00;64539.38;6288055;28;20041;-89
2024/01/22 10:56:22;;;;;;;5.15;5.03;;;;;;;-145.48;100.00;64539.38;6292949;28;20514;-90
2024/01/22 10:59:26;;;;;;;5.60;5.43;;;;;;;-145.48;100.00;64539.38;6287629;28;20055;-89
2024/01/22 11:02:32;;;;;;;5.40;5.20;;;;;;;-145.48;100.00;64539.38;6288908;28;20051;-89
2024/01/22 11:05:38;;;;;;;5.15;5.05;;;;;;;-145.48;100.00;64539.38;6287057;28;20036;-89
2024/01/22 11:08:43;;;;;;;4.90;4.80;;;;;;;-145.48;100.00;64539.38;6280701;28;20482;-90
2024/01/22 11:11:47;;;;;;;5.38;5.18;;;;;;;-145.48;100.00;64539.38;6289783;28;20053;-89
2024/01/22 11:14:49;;;;;;;4.88;4.78;;;;;;;-145.48;100.00;64539.38;6284185;28;20033;-89
2024/01/22 11:17:51;;;;;;;4.93;4.82;;;;;;;-145.48;100.00;64539.38;6290021;28;20478;-89
2024/01/22 11:21:17;;;;;;;6.13;5.93;;;;;;;-145.48;100.00;64539.38;6286192;28;20559;-89
2024/01/22 11:24:20;;;;;;;5.05;4.95;;;;;;;-145.48;100.00;64539.38;6281393;28;20503;-89
2024/01/22 11:27:37;;;;;;;5.88;5.68;;;;;;;-145.48;100.00;64539.38;6288342;28;20065;-89
2024/01/22 11:30:41;;;;;;;6.43;6.22;;;;;;;-145.48;100.00;64539.38;6288320;28;20079;-89
2024/01/22 11:33:50;;;;;;;5.55;5.35;;;;;;;-145.48;100.00;64539.38;6278649;28;20410;-89
2024/01/22 11:36:56;;;;;;;5.55;5.35;;;;;;;-145.48;100.00;64539.38;6281352;28;20047;-90
2024/01/22 11:39:59;;;;;;;5.18;5.07;;;;;;;-145.48;100.00;64539.38;6286194;28;20127;-90
2024/01/22 11:43:01;;;;;;;5.32;5.10;;;;;;;-145.48;100.00;64539.38;6287418;28;20519;-89
2024/01/22 11:46:15;;;;;;;5.30;5.10;;;;;;;-145.48;100.00;64539.38;6280190;28;20052;-89
2024/01/22 11:49:18;;;;;;;4.85;4.75;;;;;;;-145.48;100.00;64539.38;6287630;28;20463;-90
2024/01/22 11:52:26;;;;;;;5.75;5.55;;;;;;;-145.48;100.00;64539.38;6288988;28;20037;-90
2024/01/22 11:55:29;;;;;;;5.05;4.95;;;;;;;-145.48;100.00;64539.38;6283815;28;20112;-90
2024/01/22 11:58:33;;;;;;;5.05;4.95;;;;;;;-145.48;100.00;64539.38;6284465;28;20058;-90
2024/01/22 12:01:35;;;;;;;5.60;5.40;;;;;;;-145.48;100.00;64539.38;6282786;28;20051;-90
2024/01/22 12:04:37;;;;;;;5.35;5.18;;;;;;;-145.48;100.00;64539.38;6284473;28;20418;-91
2024/01/22 12:07:40;;;;;;;5.78;5.38;;;;;;;-145.48;100.00;64539.38;6281225;28;20182;-91
2024/01/22 12:10:42;;;;;;;6.03;5.82;;;;;;;-145.48;100.00;64539.38;6285005;28;20078;-91
2024/01/22 12:13:44;;;;;;;5.63;5.38;;;;;;;-145.48;100.00;64539.38;6287667;28;20193;-90
2024/01/22 12:16:46;;;;;;;5.65;5.45;;;;;;;-145.48;100.00;64539.38;6281477;28;20051;-90
2024/01/22 12:19:59;;;;;;;5.50;5.30;;;;;;;-145.48;100.00;64539.38;6282768;28;20503;-89
2024/01/22 12:23:04;;;;;;;6.15;5.95;;;;;;;-145.48;100.00;64539.38;6288678;28;20452;-90
2024/01/22 12:26:23;;;;;;;5.05;4.95;;;;;;;-145.48;100.00;64539.38;6290088;28;20049;-90
2024/01/22 12:29:25;;;;;;;6.03;5.82;;;;;;;-145.48;100.00;64539.38;6287466;28;20423;-89
2024/01/22 12:32:29;;;;;;;5.38;5.18;;;;;;;-145.48;100.00;64539.38;6287639;28;20378;-90
2024/01/22 12:35:31;;;;;;;5.85;5.65;;;;;;;-145.48;100.00;64539.38;6297450;28;20036;-86
2024/01/22 12:38:35;;;;;;;5.63;5.43;;;;;;;-145.48;100.00;64539.38;6292579;28;20171;-88
2024/01/22 12:41:38;;;;;;;6.00;5.80;;;;;;;-145.48;100.00;64539.38;6293426;28;20044;-89
2024/01/22 12:44:40;;;;;;;5.93;5.72;;;;;;;-145.48;100.00;64539.38;6288479;28;20052;-88
2024/01/22 12:47:46;;;;;;;6.70;6.30;;;;;;;-145.48;100.00;64539.38;6289306;28;20126;-89
2024/01/22 12:50:48;;;;;;;6.18;5.88;;;;;;;-145.48;100.00;64539.38;6285024;28;20047;-89
2024/01/22 12:53:51;;;;;;;7.50;6.70;;;;;;;-145.48;100.00;64539.38;6291022;28;20041;-90
2024/01/22 12:56:53;;;;;;;5.53;5.32;;;;;;;-145.48;100.00;64539.38;6287590;28;20064;-90
2024/01/22 12:59:56;;;;;;;5.60;5.40;;;;;;;-145.48;100.00;64539.38;6286494;28;20059;-91
2024/01/22 13:02:58;;;;;;;5.72;5.53;;;;;;;-145.48;100.00;64539.38;6276759;28;20082;-89
2024/01/22 13:06:00;;;;;;;6.30;6.10;;;;;;;-145.48;100.00;64539.38;6291377;28;20493;-90
2024/01/22 13:09:02;;;;;;;8.38;8.07;;;;;;;-145.48;100.00;64539.38;6292242;28;20048;-89
2024/01/22 13:12:06;;;;;;;6.13;5.93;;;;;;;-145.48;100.00;64539.38;6293688;28;20502;-92
2024/01/22 13:15:10;;;;;;;5.90;5.70;;;;;;;-145.48;100.00;64539.38;6288961;28;20098;-94
2024/01/22 13:18:13;;;;;;;6.53;6.32;;;;;;;-145.48;100.00;64539.38;6288242;28;20112;-91
2024/01/22 13:21:15;;;;;;;6.43;6.13;;;;;;;-145.48;100.00;64539.38;6284297;28;20062;-89
2024/01/22 13:24:19;;;;;;;6.40;6.20;;;;;;;-145.48;100.00;64539.38;6282436;28;20059;-90
2024/01/22 13:27:22;;;;;;;5.93;5.72;;;;;;;-145.48;100.00;64539.38;6273126;28;20186;-91
2024/01/22 13:30:25;;;;;;;5.45;5.25;;;;;;;-145.48;100.00;64539.38;6280138;28;20036;-90
2024/01/22 13:33:27;;;;;;;5.30;5.10;;;;;;;-145.48;100.00;64539.38;6281549;28;20043;-88
2024/01/22 13:36:29;;;;;;;5.95;5.75;;;;;;;-145.48;100.00;64539.38;6285930;28;20052;-88
2024/01/22 13:39:32;;;;;;;5.65;5.45;;;;;;;-145.48;100.00;64539.38;6281791;28;20063;-88
2024/01/22 13:42:35;;;;;;;5.80;5.60;;;;;;;-145.48;100.00;64539.38;6296253;28;20036;-88
2024/01/22 13:45:37;;;;;;;5.53;5.32;;;;;;;-145.48;100.00;64539.38;6289534;28;20050;-87
2024/01/22 13:48:41;;;;;;;6.15;5.95;;;;;;;-145.48;100.00;64539.38;6287473;28;20040;-87
2024/01/22 13:51:47;;;;;;;6.18;5.97;;;;;;;-145.48;100.00;64539.38;6286350;28;20051;-87